Time;durP1;ratioP1;P1;durP2;ratioP2;P2;SDS_P1;SDS_P2;PMS_P1;PMS_P2;Temp;Humidity;BMP_temperature;BMP_pressure;BME280_temperature;BME280_humidity;BME280_pressure;Samples;Min_cycle;Max_cycle;Signal;HPM_P1;HPM_P2
2023/09/14 06:14:16;;;;;;;10.77;2.80;;;;;;;17.63;69.69;101179.09;4902452;29;20358;-72
2023/09/14 06:20:25;;;;;;;7.47;2.93;;;;;;;17.72;69.18;101184.41;4899061;29;20223;-74
2023/09/14 06:22:57;;;;;;;9.73;2.80;;;;;;;17.70;69.21;101183.72;4861196;29;20297;-73
2023/09/14 06:25:45;;;;;;;;;;;;;;;;;;;;;
2023/09/14 06:28:14;;;;;;;9.00;2.97;;;;;;;17.73;69.48;101172.66;4898872;29;20267;-76
2023/09/14 06:30:45;;;;;;;11.63;3.53;;;;;;;17.76;69.56;101175.84;4904111;29;20213;-73
2023/09/14 06:33:23;;;;;;;7.53;2.80;;;;;;;17.81;70.06;101183.34;4907043;29;20312;-73
2023/09/14 06:35:52;;;;;;;7.43;2.73;;;;;;;17.82;69.65;101182.31;4904770;29;20213;-69
2023/09/14 06:38:25;;;;;;;11.43;3.20;;;;;;;17.86;69.74;101183.63;4902488;29;20213;-74
2023/09/14 06:40:55;;;;;;;5.73;2.80;;;;;;;17.86;69.06;101179.09;4905908;29;20326;-74
2023/09/14 06:43:24;;;;;;;15.70;3.57;;;;;;;17.90;69.10;101184.94;4885176;29;20229;-75
2023/09/14 07:15:38;;;;;;;13.07;3.37;;;;;;;18.25;68.46;101199.59;4829376;29;20204;-74
2023/09/14 07:28:11;;;;;;;8.13;3.40;;;;;;;18.45;66.83;101205.31;4865807;29;20217;-74
2023/09/14 07:31:15;;;;;;;11.07;3.20;;;;;;;18.48;66.21;101203.09;4879264;29;20365;-75
2023/09/14 07:48:38;;;;;;;7.03;2.70;;;;;;;18.71;65.50;101217.34;4764474;29;20213;-68
2023/09/14 07:54:36;;;;;;;8.13;2.87;;;;;;;18.87;65.08;101219.03;4832123;29;20692;-75
2023/09/14 08:07:35;;;;;;;11.53;3.37;;;;;;;19.24;63.68;101223.50;4827359;29;20211;-75
2023/09/14 08:14:33;;;;;;;8.90;3.00;;;;;;;19.60;63.33;101226.28;4828476;29;20226;-74
2023/09/14 08:21:16;;;;;;;5.80;2.07;;;;;;;20.20;60.67;101223.19;4836500;29;20303;-74
2023/09/14 08:27:50;;;;;;;15.23;3.20;;;;;;;21.60;55.50;101229.38;4883403;29;20795;-74
2023/09/14 08:31:11;;;;;;;7.13;2.50;;;;;;;22.17;52.90;101225.38;4879653;29;20217;-72
2023/09/14 08:33:45;;;;;;;9.63;2.67;;;;;;;22.94;50.37;101227.50;4872864;29;20228;-71
2023/09/14 08:36:28;;;;;;;7.67;2.80;;;;;;;23.91;48.40;101229.22;4880996;29;20213;-72
2023/09/14 08:50:33;;;;;;;8.25;2.35;;;;;;;38.43;24.12;101210.13;4737115;30;20240;-73
2023/09/14 08:53:30;;;;;;;8.30;2.50;;;;;;;40.29;22.66;101207.66;4767210;29;21190;-75
2023/09/14 08:59:43;;;;;;;9.13;2.70;;;;;;;43.07;19.57;101192.88;4809506;29;20367;-70
2023/09/14 09:02:19;;;;;;;9.80;2.55;;;;;;;43.01;19.19;101191.50;4887498;29;20539;-75
2023/09/14 09:05:11;;;;;;;7.50;2.35;;;;;;;41.70;19.81;101191.25;4897986;29;20210;-73
2023/09/14 09:12:14;;;;;;;;;;;;;;;;;;;;;
2023/09/14 09:19:40;;;;;;;;;;;;;;;;;;;;;
2023/09/14 09:34:24;;;;;;;4.90;2.28;;;;;;;39.21;21.51;101172.47;4884066;29;20224;-74
2023/09/14 09:37:49;;;;;;;3.25;1.70;;;;;;;39.30;22.25;101181.63;4879690;29;20245;-77
2023/09/14 09:44:17;;;;;;;6.78;2.05;;;;;;;36.93;24.46;101171.47;4880107;29;20209;-71
2023/09/14 10:09:10;;;;;;;7.72;2.22;;;;;;;24.87;41.79;101174.66;4887843;29;20241;-71
2023/09/14 10:16:02;;;;;;;8.13;2.13;;;;;;;23.84;44.59;101180.50;4843179;29;20251;-74
2023/09/14 10:34:03;;;;;;;5.03;1.48;;;;;;;22.22;47.98;101173.44;4850741;29;20326;-72
2023/09/14 10:39:42;;;;;;;5.65;2.33;;;;;;;22.17;48.34;101174.03;4892988;29;20593;-72
2023/09/14 10:45:36;;;;;;;7.35;1.90;;;;;;;24.50;44.04;101169.19;4882458;29;20676;-72
2023/09/14 11:24:37;;;;;;;4.82;1.70;;;;;;;25.09;42.59;101130.59;5116325;23;20251;-72
2023/09/14 13:33:38;;;;;;;4.78;1.73;;;;;;;22.75;46.31;101041.78;4871791;22;20230;-77
2023/09/14 13:54:24;;;;;;;4.60;1.40;;;;;;;22.71;45.31;101017.00;4954646;28;20219;-75
2023/09/14 13:56:52;;;;;;;5.45;1.60;;;;;;;22.72;45.01;101023.25;4953473;28;20262;-77
2023/09/14 13:59:20;;;;;;;5.63;1.45;;;;;;;22.74;45.18;101013.06;4951218;28;20701;-74
2023/09/14 14:02:13;;;;;;;4.05;1.50;;;;;;;22.77;44.68;101015.38;5029169;28;20212;-76
2023/09/14 14:07:28;;;;;;;6.38;1.60;;;;;;;22.74;45.99;101011.22;5038807;28;20208;-76
2023/09/14 14:10:10;;;;;;;6.03;1.67;;;;;;;22.73;45.33;101004.13;5018286;28;20204;-76
2023/09/14 14:12:39;;;;;;;5.68;1.30;;;;;;;22.71;44.84;100999.97;5016335;28;20196;-78
2023/09/14 14:15:09;;;;;;;8.25;1.70;;;;;;;22.69;45.91;101000.16;5020078;28;20219;-79
2023/09/14 14:17:40;;;;;;;8.77;1.80;;;;;;;22.66;45.91;100997.91;5029685;28;20633;-78
2023/09/14 14:20:09;;;;;;;5.45;1.70;;;;;;;22.61;45.45;100994.19;5034825;28;20273;-80
2023/09/14 14:22:41;;;;;;;5.15;1.45;;;;;;;22.59;45.58;101004.41;5023681;28;20268;-81
2023/09/14 14:25:10;;;;;;;5.63;1.63;;;;;;;22.53;45.58;100987.16;5017341;28;20225;-77
2023/09/14 14:27:44;;;;;;;3.38;1.42;;;;;;;22.48;45.69;100984.25;5019523;28;20578;-79
2023/09/14 14:30:14;;;;;;;4.47;1.73;;;;;;;22.46;45.75;100986.34;5019846;28;20536;-78
2023/09/14 14:32:42;;;;;;;4.13;1.58;;;;;;;22.45;45.58;100990.09;5021668;28;20205;-83
2023/09/14 14:35:11;;;;;;;5.85;1.52;;;;;;;22.39;45.55;100986.38;5018609;28;20209;-79
2023/09/14 14:37:42;;;;;;;8.60;1.75;;;;;;;22.37;45.90;100988.44;5030820;28;20233;-80
2023/09/14 14:40:13;;;;;;;6.45;1.75;;;;;;;22.37;47.33;100984.91;5033015;28;20261;-79
2023/09/14 14:42:49;;;;;;;4.38;1.55;;;;;;;22.39;47.53;100985.53;5020528;28;20220;-77
2023/09/14 14:45:36;;;;;;;6.03;1.92;;;;;;;22.41;48.13;100981.59;5019131;28;20252;-76
2023/09/14 14:48:05;;;;;;;6.72;1.90;;;;;;;22.42;47.53;100985.13;5019642;28;20551;-79
2023/09/14 14:50:33;;;;;;;5.53;2.00;;;;;;;22.43;46.34;100979.47;5018794;28;20803;-77
2023/09/14 14:53:04;;;;;;;10.52;2.08;;;;;;;22.37;45.41;100980.34;5019415;28;20209;-74
2023/09/14 14:55:35;;;;;;;6.20;1.52;;;;;;;22.31;46.08;100981.22;5015807;28;20201;-75
2023/09/14 14:58:04;;;;;;;6.22;2.15;;;;;;;22.30;46.27;100978.72;5014990;28;21105;-75
2023/09/14 15:00:32;;;;;;;5.40;1.77;;;;;;;22.28;47.08;100983.50;5016976;28;20197;-77
2023/09/14 15:03:01;;;;;;;8.70;1.85;;;;;;;22.26;47.39;100978.28;5020352;28;20808;-75
2023/09/14 15:05:29;;;;;;;7.10;1.50;;;;;;;22.25;47.11;100970.44;5021769;28;20209;-77
2023/09/14 15:07:57;;;;;;;3.70;1.70;;;;;;;22.24;47.79;100968.75;5021330;28;20282;-77
2023/09/14 15:10:27;;;;;;;6.00;1.75;;;;;;;22.25;47.85;100973.13;5024034;28;20236;-79
2023/09/14 15:13:00;;;;;;;5.90;1.88;;;;;;;22.24;47.34;100966.06;5018185;28;20306;-77
2023/09/14 15:19:12;;;;;;;6.88;2.10;;;;;;;22.21;49.51;100961.91;5014471;28;20220;-80
2023/09/14 15:21:40;;;;;;;6.70;1.85;;;;;;;22.22;48.08;100963.56;5027383;28;20243;-77
2023/09/14 15:24:09;;;;;;;5.22;1.65;;;;;;;22.20;47.83;100962.94;5000663;28;20210;-80
2023/09/14 15:26:38;;;;;;;6.30;1.38;;;;;;;22.16;46.78;100969.84;5002867;28;20220;-78
2023/09/14 15:29:10;;;;;;;6.43;1.55;;;;;;;22.12;47.22;100974.81;4997936;28;20288;-76
2023/09/14 15:31:42;;;;;;;7.20;1.77;;;;;;;22.10;48.26;100976.88;4998718;28;20261;-79
2023/09/14 15:34:10;;;;;;;4.03;1.80;;;;;;;22.10;48.35;100968.78;5003686;28;20198;-78
2023/09/14 15:36:39;;;;;;;3.53;1.58;;;;;;;22.08;47.84;100961.94;5002771;28;20316;-79
2023/09/14 15:39:07;;;;;;;5.38;1.58;;;;;;;22.06;48.88;100969.44;4998954;28;20205;-78
2023/09/14 15:41:36;;;;;;;6.13;2.58;;;;;;;22.08;48.40;100968.16;4995804;28;20295;-78
2023/09/14 15:44:05;;;;;;;5.88;1.83;;;;;;;22.03;49.38;100965.28;4998274;28;20194;-78
2023/09/14 15:46:35;;;;;;;11.25;3.03;;;;;;;22.03;48.94;100967.97;4993080;28;20280;-77
2023/09/14 15:49:04;;;;;;;10.80;3.97;;;;;;;21.98;48.34;100967.78;4997159;28;20265;-77
2023/09/14 15:51:33;;;;;;;5.53;2.20;;;;;;;21.95;48.90;100972.75;4998686;28;20216;-79
2023/09/14 15:54:02;;;;;;;6.47;2.38;;;;;;;21.91;48.69;100972.31;4999686;28;20206;-75
2023/09/14 15:56:30;;;;;;;5.18;2.40;;;;;;;21.90;49.43;100978.75;4994421;28;20665;-79
2023/09/14 15:58:58;;;;;;;5.65;2.80;;;;;;;21.89;48.44;100976.28;4991531;28;20233;-77
2023/09/14 16:01:26;;;;;;;4.53;1.83;;;;;;;21.85;49.72;100970.47;4992857;28;20277;-77
2023/09/14 16:03:56;;;;;;;8.23;2.67;;;;;;;21.82;48.93;100970.88;4999617;28;20206;-78
2023/09/14 16:06:25;;;;;;;3.88;1.55;;;;;;;21.81;49.17;100971.94;5004064;28;20228;-79
2023/09/14 16:08:53;;;;;;;3.38;1.70;;;;;;;21.78;48.86;100973.19;5016947;28;20260;-74
2023/09/14 16:11:21;;;;;;;5.75;2.25;;;;;;;21.78;49.27;100972.34;5003824;28;20299;-78
2023/09/14 16:13:49;;;;;;;5.37;1.80;;;;;;;21.75;48.68;100959.25;5003736;28;20210;-80
2023/09/14 16:16:18;;;;;;;5.68;1.90;;;;;;;21.74;48.84;100965.69;5005081;28;20284;-73
2023/09/14 16:18:47;;;;;;;5.95;1.73;;;;;;;21.73;50.05;100964.84;4995600;28;20244;-79
2023/09/14 16:21:20;;;;;;;4.33;1.73;;;;;;;21.71;49.39;100966.97;4995125;28;20206;-73
2023/09/14 16:23:48;;;;;;;3.58;1.58;;;;;;;21.68;50.39;100963.84;4995972;28;20284;-75
2023/09/14 16:26:16;;;;;;;5.43;1.92;;;;;;;21.65;49.94;100966.94;4999525;28;20293;-80
2023/09/14 16:28:45;;;;;;;6.67;1.50;;;;;;;21.64;51.04;100959.88;5003389;28;20236;-79
2023/09/14 16:31:13;;;;;;;6.80;2.22;;;;;;;21.66;51.10;100957.81;5001727;28;20661;-79
2023/09/14 16:33:41;;;;;;;7.80;1.90;;;;;;;21.66;50.24;100957.81;4998218;28;20212;-76
2023/09/14 16:36:10;;;;;;;6.78;2.25;;;;;;;21.63;49.47;100955.56;4997083;28;20526;-75
2023/09/14 16:38:44;;;;;;;4.13;1.57;;;;;;;21.61;50.66;100960.31;5000235;28;20240;-74
2023/09/14 16:41:14;;;;;;;9.60;1.67;;;;;;;21.54;50.58;100959.50;4994665;28;20296;-76
2023/09/14 16:43:45;;;;;;;5.63;1.77;;;;;;;21.51;50.43;100960.75;4994672;28;20678;-76
2023/09/14 16:46:13;;;;;;;4.50;1.85;;;;;;;21.50;51.30;100963.63;4996636;28;20198;-80
2023/09/14 16:48:42;;;;;;;5.63;2.03;;;;;;;21.46;51.98;100957.81;4998047;28;20205;-71
2023/09/14 16:51:10;;;;;;;6.17;2.20;;;;;;;21.44;52.17;100959.06;4997725;28;20252;-77
2023/09/14 16:53:39;;;;;;;5.27;1.67;;;;;;;21.41;51.06;100965.72;4994775;28;20332;-73
2023/09/14 16:56:08;;;;;;;5.87;2.17;;;;;;;21.40;51.57;100964.03;4996188;28;20299;-74
2023/09/14 16:58:37;;;;;;;5.00;1.90;;;;;;;21.35;51.76;100959.28;4993515;28;20960;-71
2023/09/14 17:01:05;;;;;;;2.93;1.50;;;;;;;21.30;49.75;100964.44;4994024;28;20396;-71
2023/09/14 17:03:34;;;;;;;6.03;2.00;;;;;;;21.29;49.93;100967.34;4993142;28;20257;-75
2023/09/14 17:08:48;;;;;;;5.80;2.33;;;;;;;21.24;51.52;100973.38;4991266;28;20296;-73
2023/09/14 17:11:17;;;;;;;7.37;2.70;;;;;;;21.21;51.87;100965.69;4993648;28;20290;-75
2023/09/14 17:13:47;;;;;;;12.53;2.80;;;;;;;21.19;51.74;100967.78;4992295;28;20209;-75
2023/09/14 17:16:16;;;;;;;5.17;2.13;;;;;;;21.17;51.72;100964.44;4994964;28;20303;-74
2023/09/14 17:18:46;;;;;;;2.50;1.37;;;;;;;21.15;51.50;100958.41;4995218;28;20231;-78
2023/09/14 17:21:15;;;;;;;5.80;1.77;;;;;;;21.11;51.37;100965.22;4992100;28;20259;-78
2023/09/14 17:23:43;;;;;;;5.70;1.53;;;;;;;21.09;51.67;100961.09;4991239;28;20279;-78
2023/09/14 17:26:13;;;;;;;9.20;2.17;;;;;;;21.05;51.27;100960.66;4993979;28;20236;-77
2023/09/14 17:28:54;;;;;;;5.67;1.80;;;;;;;21.01;51.97;100965.66;4992209;28;20216;-77
2023/09/14 17:31:33;;;;;;;3.70;1.90;;;;;;;20.98;52.55;100955.25;4997738;28;20205;-75
2023/09/14 17:34:03;;;;;;;11.17;2.33;;;;;;;20.94;51.99;100962.06;4998548;28;20281;-80
2023/09/14 17:36:33;;;;;;;6.17;2.50;;;;;;;20.92;52.42;100956.09;4997484;28;20511;-80
2023/09/14 17:39:01;;;;;;;7.20;2.37;;;;;;;20.87;52.31;100963.09;5004916;28;20282;-78
2023/09/14 17:41:31;;;;;;;4.60;2.00;;;;;;;20.85;52.57;100965.16;5011561;28;20709;-81
2023/09/14 17:43:59;;;;;;;5.37;2.00;;;;;;;20.80;52.08;100960.41;5005384;28;20214;-80
2023/09/14 17:46:28;;;;;;;4.80;1.90;;;;;;;20.78;53.21;100961.63;5009950;28;20212;-80
2023/09/14 17:48:57;;;;;;;7.43;2.30;;;;;;;20.77;53.12;100968.88;5011783;28;20218;-79
2023/09/14 17:51:25;;;;;;;4.77;1.83;;;;;;;20.76;53.34;100964.50;5004278;28;20332;-75
2023/09/14 17:54:15;;;;;;;9.53;2.30;;;;;;;20.73;53.84;100966.81;4997890;28;20209;-75
2023/09/14 17:56:50;;;;;;;7.03;2.67;;;;;;;20.66;54.04;100972.19;4999922;28;20535;-76
2023/09/14 17:59:18;;;;;;;5.57;2.40;;;;;;;20.61;53.86;100959.28;4998922;28;20230;-76
2023/09/14 18:01:47;;;;;;;4.33;2.00;;;;;;;20.58;53.95;100964.28;4999533;28;20660;-80
2023/09/14 18:04:16;;;;;;;7.30;2.17;;;;;;;20.56;53.58;100964.47;5000977;28;20321;-74
2023/09/14 18:06:44;;;;;;;7.07;2.20;;;;;;;20.53;53.89;100967.56;4993522;28;20578;-80
2023/09/14 18:09:12;;;;;;;6.07;2.07;;;;;;;20.51;53.96;100966.91;4999197;28;20209;-78
2023/09/14 18:14:06;;;;;;;7.77;2.43;;;;;;;20.51;54.00;100971.47;5003660;27;2262912;-72
2023/09/14 18:16:35;;;;;;;7.17;2.27;;;;;;;20.48;54.35;100972.72;5052708;28;20200;-75
2023/09/14 18:19:16;;;;;;;5.97;2.90;;;;;;;20.42;54.57;100978.91;5051225;28;20303;-72
2023/09/14 18:22:28;;;;;;;9.43;2.17;;;;;;;20.35;55.04;100980.72;5037698;28;20286;-75
2023/09/14 18:26:21;;;;;;;8.43;2.20;;;;;;;20.26;54.90;100981.88;5018716;28;20216;-72
2023/09/14 18:32:36;;;;;;;4.63;1.80;;;;;;;20.13;54.94;100988.06;5054244;28;20215;-73
2023/09/14 18:38:35;;;;;;;7.10;2.53;;;;;;;20.18;56.19;100990.13;5053299;28;20312;-75
2023/09/14 18:44:08;;;;;;;5.10;1.60;;;;;;;20.10;55.47;100982.22;5041282;28;20523;-75
2023/09/14 18:50:03;;;;;;;9.40;1.97;;;;;;;20.09;56.25;101004.78;5046102;28;20872;-75
2023/09/14 18:55:36;;;;;;;5.50;2.63;;;;;;;20.06;56.50;101000.63;5047039;28;20212;-72
2023/09/14 19:22:21;;;;;;;4.63;1.77;;;;;;;19.96;56.03;101012.78;5047265;28;21154;-74
2023/09/14 19:45:01;;;;;;;7.27;2.20;;;;;;;19.83;58.54;101006.25;5032943;28;20241;-74
2023/09/14 19:48:00;;;;;;;9.00;2.20;;;;;;;19.83;58.59;101014.34;5032605;28;20220;-74
2023/09/14 19:50:54;;;;;;;7.90;2.23;;;;;;;19.79;59.16;101006.84;5033395;28;20204;-75
